TCN669 N51-KTEB

Flight info

Callsign TCN669
Flight time N/A
Altitude 4000
Route WOOLY2 SWANN JAIKE4
Aircraft C680/M-SBDE3FGHRWXY/S

Departure

Time N/A
Airport N51

Arrival

Time 2026-05-05 20:30
Airport Teterboro Airport (KTEB)
Time Latitude Longitude Altitude Speed Heading
2026-05-05 20:04 40.58405 -74.73310 194 ft 0 kts 209°
2026-05-05 20:09 40.58392 -74.73319 176 ft 19 kts 208°
2026-05-05 20:09 40.57970 -74.73632 197 ft 117 kts 210°
2026-05-05 20:10 40.57246 -74.74178 1280 ft 110 kts 210°
2026-05-05 20:10 40.56669 -74.74973 2307 ft 140 kts 248°
2026-05-05 20:10 40.56875 -74.76378 3296 ft 183 kts 292°
2026-05-05 20:10 40.57664 -74.77940 3973 ft 233 kts 295°
2026-05-05 20:11 40.58565 -74.79865 3982 ft 250 kts 294°
2026-05-05 20:11 40.59363 -74.81841 3966 ft 249 kts 283°
2026-05-05 20:11 40.59441 -74.84080 3968 ft 243 kts 255°
2026-05-05 20:11 40.58643 -74.85948 3980 ft 235 kts 222°
2026-05-05 20:12 40.57155 -74.86874 4012 ft 247 kts 191°
2026-05-05 20:12 40.55451 -74.86517 4000 ft 258 kts 160°
2026-05-05 20:12 40.54078 -74.84923 3995 ft 275 kts 130°
2026-05-05 20:12 40.53397 -74.82519 3998 ft 286 kts 106°
2026-05-05 20:13 40.53511 -74.79887 3994 ft 298 kts 74°
2026-05-05 20:13 40.54665 -74.77652 3987 ft 300 kts 40°
2026-05-05 20:13 40.56389 -74.76074 3992 ft 301 kts 29°
2026-05-05 20:13 40.58124 -74.74573 3962 ft 297 kts 34°
2026-05-05 20:14 40.59624 -74.72735 3971 ft 299 kts 46°
2026-05-05 20:14 40.60981 -74.70680 3970 ft 301 kts 49°
2026-05-05 20:14 40.62304 -74.68566 3973 ft 298 kts 51°
2026-05-05 20:14 40.63852 -74.66796 3967 ft 296 kts 29°
2026-05-05 20:15 40.65731 -74.65662 3974 ft 297 kts 19°
2026-05-05 20:15 40.67642 -74.64695 3975 ft 293 kts 18°
2026-05-05 20:15 40.69563 -74.63740 3976 ft 296 kts 18°
2026-05-05 20:15 40.71462 -74.62808 3976 ft 287 kts 18°
2026-05-05 20:16 40.73338 -74.61894 3976 ft 289 kts 18°
2026-05-05 20:16 40.75227 -74.60976 3992 ft 291 kts 17°
2026-05-05 20:16 40.77129 -74.60045 3994 ft 292 kts 18°
2026-05-05 20:16 40.79029 -74.59106 4005 ft 292 kts 18°
2026-05-05 20:17 40.80917 -74.58179 3998 ft 292 kts 18°
2026-05-05 20:17 40.82843 -74.57239 3833 ft 297 kts 17°
2026-05-05 20:17 40.84769 -74.56284 3660 ft 292 kts 18°
2026-05-05 20:17 40.86679 -74.55341 3487 ft 294 kts 18°
2026-05-05 20:18 40.88589 -74.54400 3317 ft 290 kts 17°
2026-05-05 20:18 40.90480 -74.53481 3149 ft 297 kts 18°
2026-05-05 20:18 40.92400 -74.52536 3001 ft 290 kts 18°
2026-05-05 20:18 40.94245 -74.51532 2993 ft 290 kts 27°
2026-05-05 20:19 40.95825 -74.49834 2990 ft 295 kts 44°
2026-05-05 20:19 40.97247 -74.47865 2980 ft 296 kts 47°
2026-05-05 20:19 40.98637 -74.45856 2978 ft 297 kts 47°
2026-05-05 20:19 41.00034 -74.43832 2978 ft 297 kts 47°
2026-05-05 20:20 41.01417 -74.41824 2975 ft 296 kts 47°
2026-05-05 20:20 41.02798 -74.39793 2984 ft 297 kts 48°
2026-05-05 20:20 41.04160 -74.37798 2982 ft 299 kts 49°
2026-05-05 20:20 41.05262 -74.35439 2976 ft 298 kts 64°
2026-05-05 20:21 41.06130 -74.33022 2973 ft 289 kts 68°
2026-05-05 20:21 41.06978 -74.30620 2981 ft 289 kts 67°
2026-05-05 20:21 41.07825 -74.28207 2983 ft 287 kts 68°
2026-05-05 20:21 41.08668 -74.25792 2988 ft 291 kts 68°
2026-05-05 20:22 41.09473 -74.23333 2972 ft 288 kts 75°
2026-05-05 20:22 41.09860 -74.20757 2979 ft 285 kts 86°
2026-05-05 20:22 41.10103 -74.18169 2988 ft 279 kts 87°
2026-05-05 20:22 41.10153 -74.15693 2973 ft 260 kts 100°
2026-05-05 20:23 41.09884 -74.13381 2774 ft 255 kts 107°
2026-05-05 20:23 41.09561 -74.11057 2329 ft 256 kts 107°
2026-05-05 20:23 41.08911 -74.08982 1979 ft 230 kts 135°
2026-05-05 20:23 41.07868 -74.07543 1977 ft 207 kts 144°
2026-05-05 20:24 41.06814 -74.06261 1971 ft 206 kts 146°
2026-05-05 20:24 41.05740 -74.05056 1956 ft 199 kts 155°
2026-05-05 20:24 41.04500 -74.04618 1963 ft 176 kts 182°
2026-05-05 20:24 41.03322 -74.04626 1961 ft 163 kts 188°
2026-05-05 20:25 41.02231 -74.04685 1966 ft 152 kts 188°
2026-05-05 20:25 41.01187 -74.04750 1969 ft 148 kts 188°
2026-05-05 20:25 41.00147 -74.04831 1973 ft 153 kts 188°
2026-05-05 20:25 40.99066 -74.04915 1973 ft 157 kts 189°
2026-05-05 20:26 40.97983 -74.04996 1974 ft 155 kts 189°
2026-05-05 20:26 40.96937 -74.05074 1969 ft 149 kts 188°
2026-05-05 20:26 40.95839 -74.05153 1945 ft 161 kts 188°
2026-05-05 20:26 40.94753 -74.05227 1769 ft 151 kts 189°
2026-05-05 20:27 40.93785 -74.05300 1589 ft 129 kts 188°
2026-05-05 20:27 40.92973 -74.05360 1433 ft 109 kts 191°
2026-05-05 20:27 40.92278 -74.05408 1305 ft 88 kts 191°
2026-05-05 20:27 40.91728 -74.05455 1201 ft 77 kts 195°
2026-05-05 20:28 40.91174 -74.05506 1095 ft 85 kts 188°
2026-05-05 20:28 40.90578 -74.05535 992 ft 83 kts 192°
2026-05-05 20:28 40.90018 -74.05583 891 ft 80 kts 192°
2026-05-05 20:28 40.89478 -74.05624 753 ft 80 kts 191°
2026-05-05 20:29 40.88894 -74.05664 718 ft 79 kts 189°
2026-05-05 20:29 40.88305 -74.05712 598 ft 89 kts 195°
2026-05-05 20:29 40.87658 -74.05767 471 ft 98 kts 191°
2026-05-05 20:29 40.86967 -74.05811 317 ft 96 kts 189°
2026-05-05 20:30 40.86358 -74.05851 203 ft 81 kts 193°
2026-05-05 20:30 40.85793 -74.05886 104 ft 83 kts 197°
2026-05-05 20:30 40.85212 -74.05939 12 ft 78 kts 192°
2026-05-05 20:30 40.84907 -74.05963 7 ft 49 kts 182°
2026-05-05 20:31 40.84672 -74.06110 9 ft 20 kts 210°
2026-05-05 20:31 40.84580 -74.06130 9 ft 14 kts 183°
2026-05-05 20:31 40.84469 -74.06138 8 ft 17 kts 182°
2026-05-05 20:31 40.84342 -74.06151 8 ft 19 kts 194°
2026-05-05 20:32 40.84248 -74.06237 8 ft 15 kts 244°
2026-05-05 20:32 40.84244 -74.06321 5 ft 14 kts 276°
2026-05-05 20:32 40.84245 -74.06442 6 ft 11 kts 248°
2026-05-05 20:32 40.84182 -74.06500 6 ft 13 kts 206°
2026-05-05 20:33 40.84172 -74.06555 6 ft 4 kts 325°
2026-05-05 20:33 40.84184 -74.06561 6 ft 0 kts 342°